createdAt,value
2022-09-02T00:01:24.485Z,99838.06
2022-09-02T00:03:52.913Z,99842.38
2022-09-02T00:06:20.062Z,99839.03
2022-09-02T00:08:47.320Z,99839.44
2022-09-02T00:11:17.398Z,99846.97
2022-09-02T00:13:45.662Z,99838.59
2022-09-02T00:16:13.858Z,99845.81
2022-09-02T00:18:46.016Z,99839.06
2022-09-02T00:21:15.159Z,99837.47
2022-09-02T00:23:44.025Z,99835.00
2022-09-02T00:26:12.541Z,99826.22
2022-09-02T00:28:40.801Z,99840.56
2022-09-02T00:31:17.723Z,99832.44
2022-09-02T00:33:44.992Z,99827.03
2022-09-02T00:36:13.036Z,99834.47
2022-09-02T00:38:40.228Z,99820.31
2022-09-02T00:41:10.132Z,99823.97
2022-09-02T00:43:45.580Z,99828.25
2022-09-02T00:46:17.126Z,99821.09
2022-09-02T00:48:53.990Z,99824.41
2022-09-02T00:51:21.930Z,99816.25
2022-09-02T00:53:49.994Z,99820.88
2022-09-02T00:56:25.547Z,99820.13
2022-09-02T00:58:54.234Z,99809.75
2022-09-02T01:01:22.787Z,99817.66
2022-09-02T01:03:50.559Z,99814.34
2022-09-02T01:06:22.117Z,99808.47
2022-09-02T01:08:57.151Z,99809.44
2022-09-02T01:11:32.297Z,99806.22
2022-09-02T01:13:59.715Z,99796.63
2022-09-02T01:16:33.000Z,99806.69
2022-09-02T01:19:03.840Z,99804.13
2022-09-02T01:21:31.143Z,99803.25
2022-09-02T01:23:58.245Z,99803.16
2022-09-02T01:26:25.186Z,99808.72
2022-09-02T01:28:52.914Z,99812.22
2022-09-02T01:31:22.971Z,99807.84
2022-09-02T01:33:51.433Z,99805.28
2022-09-02T01:36:21.749Z,99807.59
2022-09-02T01:38:49.063Z,99805.06
2022-09-02T01:41:16.682Z,99801.97
2022-09-02T01:43:47.101Z,99802.28
2022-09-02T01:46:16.723Z,99802.94
2022-09-02T01:48:43.795Z,99806.44
2022-09-02T01:51:17.072Z,99801.84
2022-09-02T01:53:45.164Z,99801.97
2022-09-02T01:56:12.832Z,99810.53
2022-09-02T01:58:42.884Z,99813.94
2022-09-02T02:01:11.679Z,99805.06
2022-09-02T02:03:41.652Z,99805.94
2022-09-02T02:06:16.582Z,99804.53
2022-09-02T02:08:45.110Z,99808.59
2022-09-02T02:11:19.851Z,99807.94
2022-09-02T02:13:50.224Z,99806.25
2022-09-02T02:16:19.470Z,99794.81
2022-09-02T02:18:47.653Z,99804.34
2022-09-02T02:21:14.763Z,99797.69
2022-09-02T02:23:42.022Z,99797.16
2022-09-02T02:26:09.057Z,99792.56
2022-09-02T02:28:37.351Z,99790.00
2022-09-02T02:31:05.891Z,99784.22
2022-09-02T02:33:35.977Z,99790.41
2022-09-02T02:36:06.482Z,99787.63
2022-09-02T02:38:35.071Z,99790.75
2022-09-02T02:41:06.393Z,99790.53
2022-09-02T02:43:37.393Z,99792.78
2022-09-02T02:46:04.754Z,99793.97
2022-09-02T02:48:32.926Z,99799.84
2022-09-02T02:51:00.434Z,99799.22
2022-09-02T02:53:31.243Z,99798.13
2022-09-02T02:56:01.656Z,99799.22
2022-09-02T02:58:29.283Z,99792.34
2022-09-02T03:00:57.755Z,99793.75
2022-09-02T03:03:25.134Z,99799.00
2022-09-02T03:05:54.931Z,99787.84
2022-09-02T03:08:25.937Z,99787.84
2022-09-02T03:10:56.320Z,99794.47
2022-09-02T03:13:26.980Z,99793.09
2022-09-02T03:15:59.776Z,99791.03
2022-09-02T03:18:29.185Z,99788.56
2022-09-02T03:20:58.130Z,99788.78
2022-09-02T03:23:25.570Z,99793.91
2022-09-02T03:25:52.851Z,99787.59
2022-09-02T03:28:33.773Z,99789.09
2022-09-02T03:31:03.078Z,99792.63
2022-09-02T03:33:31.158Z,99789.53
2022-09-02T03:35:58.267Z,99796.59
2022-09-02T03:38:26.387Z,99797.03
2022-09-02T03:40:53.694Z,99801.47
2022-09-02T03:43:21.057Z,99789.63
2022-09-02T03:45:49.315Z,99795.06
2022-09-02T03:48:17.375Z,99791.19
2022-09-02T03:50:47.242Z,99791.13
2022-09-02T03:53:20.196Z,99789.13
2022-09-02T03:55:56.739Z,99795.84
2022-09-02T03:58:26.517Z,99796.31
2022-09-02T04:00:55.719Z,99784.91
2022-09-02T04:03:24.751Z,99781.31
2022-09-02T04:05:52.651Z,99787.09
2022-09-02T04:08:22.345Z,99789.78
2022-09-02T04:10:53.652Z,99793.91
2022-09-02T04:13:20.593Z,99791.38
2022-09-02T04:15:49.244Z,99786.47
2022-09-02T04:18:18.369Z,99803.25
2022-09-02T04:20:45.598Z,99793.94
2022-09-02T04:23:13.413Z,99795.88
2022-09-02T04:25:44.151Z,99794.06
2022-09-02T04:28:13.297Z,99797.34
2022-09-02T04:30:42.369Z,99802.03
2022-09-02T04:33:13.951Z,99797.69
2022-09-02T04:35:43.629Z,99803.59
2022-09-02T04:38:12.022Z,99799.03
2022-09-02T04:40:46.026Z,99794.72
2022-09-02T04:43:14.863Z,99802.53
2022-09-02T04:45:44.774Z,99796.47
2022-09-02T04:48:14.693Z,99808.59
2022-09-02T04:50:43.060Z,99809.53
2022-09-02T04:53:10.879Z,99799.38
2022-09-02T04:55:41.209Z,99814.47
2022-09-02T04:58:11.379Z,99811.16
2022-09-02T05:00:40.571Z,99809.56
2022-09-02T05:03:11.883Z,99808.81
2022-09-02T05:05:40.808Z,99812.56
2022-09-02T05:08:13.235Z,99813.31
2022-09-02T05:10:42.998Z,99814.97
2022-09-02T05:13:12.466Z,99815.28
2022-09-02T05:15:40.904Z,99815.38
2022-09-02T05:18:10.396Z,99817.41
2022-09-02T05:20:40.535Z,99820.84
2022-09-02T05:23:08.764Z,99818.41
2022-09-02T05:25:37.827Z,99810.41
2022-09-02T05:28:06.450Z,99817.81
2022-09-02T05:30:38.805Z,99816.06
2022-09-02T05:33:07.607Z,99807.22
2022-09-02T05:35:45.392Z,99813.09
2022-09-02T05:38:17.312Z,99812.25
2022-09-02T05:40:46.018Z,99814.69
2022-09-02T05:43:13.230Z,99809.66
2022-09-02T05:45:40.935Z,99804.22
2022-09-02T05:48:28.201Z,99802.78
2022-09-02T05:50:57.717Z,99796.09
2022-09-02T05:53:29.431Z,99797.22
2022-09-02T05:55:57.400Z,99808.44
2022-09-02T05:58:25.140Z,99815.63
2022-09-02T06:00:54.184Z,99805.31
2022-09-02T06:03:22.004Z,99810.41
2022-09-02T06:06:04.362Z,99811.84
2022-09-02T06:08:34.778Z,99796.53
2022-09-02T06:11:02.599Z,99802.22
2022-09-02T06:13:30.828Z,99815.91
2022-09-02T06:15:58.128Z,99808.25
2022-09-02T06:18:29.891Z,99810.53
2022-09-02T06:20:59.561Z,99814.25
2022-09-02T06:23:35.224Z,99810.59
2022-09-02T06:26:03.409Z,99812.50
2022-09-02T06:28:34.794Z,99808.81
2022-09-02T06:31:13.456Z,99806.03
2022-09-02T06:33:46.516Z,99816.44
2022-09-02T06:36:21.435Z,99804.22
2022-09-02T06:38:52.269Z,99803.34
2022-09-02T06:41:23.578Z,99804.47
2022-09-02T06:43:54.972Z,99804.88
2022-09-02T06:46:30.089Z,99806.03
2022-09-02T06:49:02.447Z,99814.25
2022-09-02T06:51:39.485Z,99815.47
2022-09-02T06:54:09.281Z,99833.69
2022-09-02T06:56:38.862Z,99834.44
2022-09-02T06:59:07.856Z,99843.41
2022-09-02T07:01:52.106Z,99848.69
2022-09-02T07:04:40.600Z,99856.81
2022-09-02T07:07:09.890Z,99842.88
2022-09-02T07:09:42.719Z,99845.81
2022-09-02T07:12:20.266Z,99855.53
2022-09-02T07:14:53.359Z,99865.69
2022-09-02T07:17:32.299Z,99860.09
2022-09-02T07:20:06.003Z,99859.19
2022-09-02T07:22:39.453Z,99860.47
2022-09-02T07:25:11.505Z,99866.19
2022-09-02T07:27:38.875Z,99871.66
2022-09-02T07:30:06.909Z,99859.66
2022-09-02T07:32:37.940Z,99867.66
2022-09-02T07:35:07.602Z,99863.56
2022-09-02T07:37:37.112Z,99861.34
2022-09-02T07:40:11.651Z,99863.84
2022-09-02T07:42:39.997Z,99869.34
2022-09-02T07:45:09.225Z,99861.06
2022-09-02T07:47:39.060Z,99860.56
2022-09-02T07:50:22.433Z,99862.19
2022-09-02T07:52:55.369Z,99866.44
2022-09-02T07:55:23.842Z,99867.38
2022-09-02T07:57:52.465Z,99865.00
2022-09-02T08:00:21.251Z,99856.72
2022-09-02T08:02:51.027Z,99868.69
2022-09-02T08:05:24.071Z,99859.53
2022-09-02T08:07:51.542Z,99857.09
2022-09-02T08:10:21.017Z,99860.75
2022-09-02T08:12:48.408Z,99852.03
2022-09-02T08:15:16.452Z,99852.63
2022-09-02T08:17:44.405Z,99855.97
2022-09-02T08:20:12.853Z,99856.34
2022-09-02T08:22:41.286Z,99858.38
2022-09-02T08:25:12.017Z,99865.06
2022-09-02T08:27:40.078Z,99864.16
2022-09-02T08:30:12.040Z,99857.38
2022-09-02T08:32:40.176Z,99855.59
2022-09-02T08:35:09.728Z,99861.41
2022-09-02T08:37:37.559Z,99852.00
2022-09-02T08:40:08.698Z,99855.47
2022-09-02T08:42:40.936Z,99854.84
2022-09-02T08:45:27.617Z,99859.44
2022-09-02T08:48:01.044Z,99853.75
2022-09-02T08:50:31.021Z,99854.72
2022-09-02T08:53:09.105Z,99851.53
2022-09-02T08:55:58.223Z,99852.09
2022-09-02T08:58:29.210Z,99854.97
2022-09-02T09:01:06.116Z,99841.28
2022-09-02T09:04:07.874Z,99844.38
2022-09-02T09:06:43.893Z,99845.19
2022-09-02T09:09:36.695Z,99841.38
2022-09-02T09:12:42.525Z,99837.75
2022-09-02T09:15:38.542Z,99831.50
2022-09-02T09:18:11.372Z,99830.75
2022-09-02T09:20:41.343Z,99831.91
2022-09-02T09:23:34.203Z,99840.38
2022-09-02T09:26:07.174Z,99830.75
2022-09-02T09:28:47.154Z,99827.31
2022-09-02T09:31:20.349Z,99826.38
2022-09-02T09:34:04.674Z,99833.78
2022-09-02T09:36:43.019Z,99826.00
2022-09-02T09:39:23.575Z,99822.81
2022-09-02T09:41:56.622Z,99816.91
2022-09-02T09:44:48.285Z,99816.28
2022-09-02T09:47:25.737Z,99806.56
2022-09-02T09:50:13.831Z,99810.63
2022-09-02T09:52:40.857Z,99809.84
2022-09-02T09:55:24.990Z,99803.97
2022-09-02T09:58:09.392Z,99803.75
2022-09-02T10:00:41.468Z,99802.03
2022-09-02T10:03:08.903Z,99796.91
2022-09-02T10:05:40.755Z,99796.28
2022-09-02T10:08:16.964Z,99788.75
2022-09-02T10:11:00.722Z,99791.47
2022-09-02T10:13:33.253Z,99780.69
2022-09-02T10:16:11.531Z,99788.19
2022-09-02T10:18:58.561Z,99785.84
2022-09-02T10:22:04.291Z,99788.59
2022-09-02T10:24:31.940Z,99769.97
2022-09-02T10:27:00.608Z,99769.69
2022-09-02T10:29:52.099Z,99774.31
2022-09-02T10:32:30.350Z,99769.06
2022-09-02T10:35:21.844Z,99770.41
2022-09-02T10:38:26.980Z,99768.75
2022-09-02T10:41:10.223Z,99766.25
2022-09-02T10:44:03.334Z,99763.66
2022-09-02T10:46:42.394Z,99768.16
2022-09-02T10:49:28.980Z,99751.94
2022-09-02T10:52:10.501Z,99756.34
2022-09-02T10:54:55.527Z,99754.34
2022-09-02T10:57:48.605Z,99751.19
2022-09-02T11:00:20.814Z,99754.34
2022-09-02T11:03:00.196Z,99741.69
2022-09-02T11:05:51.948Z,99737.03
2022-09-02T11:08:43.634Z,99733.81
2022-09-02T11:11:22.645Z,99744.28
2022-09-02T11:14:15.622Z,99737.50
2022-09-02T11:16:52.435Z,99744.19
2022-09-02T11:19:26.788Z,99739.72
2022-09-02T11:22:11.903Z,99746.22
2022-09-02T11:24:47.302Z,99734.31
2022-09-02T11:27:43.048Z,99741.06
2022-09-02T11:30:12.784Z,99734.19
2022-09-02T11:32:59.770Z,99730.75
2022-09-02T11:35:31.047Z,99732.84
2022-09-02T11:38:05.665Z,99732.97
2022-09-02T11:41:32.547Z,99727.16
2022-09-02T11:46:34.163Z,99722.41
2022-09-02T11:49:26.147Z,99714.41
2022-09-02T11:51:59.111Z,99713.66
2022-09-02T11:54:37.481Z,99711.59
2022-09-02T11:57:06.664Z,99713.31
2022-09-02T12:00:07.778Z,99701.03
2022-09-02T12:02:45.822Z,99705.09
2022-09-02T12:05:32.096Z,99695.09
2022-09-02T12:08:04.421Z,99697.28
2022-09-02T12:10:43.735Z,99692.13
2022-09-02T12:13:32.164Z,99700.63
2022-09-02T12:16:19.534Z,99687.16
2022-09-02T12:19:07.475Z,99693.28
2022-09-02T12:21:35.727Z,99681.53
2022-09-02T12:24:09.522Z,99673.03
2022-09-02T12:26:36.692Z,99677.06
2022-09-02T12:29:19.285Z,99680.25
2022-09-02T12:31:49.783Z,99677.56
2022-09-02T12:34:25.855Z,99677.28
2022-09-02T12:37:00.716Z,99670.88
2022-09-02T12:39:27.805Z,99674.72
2022-09-02T12:42:01.179Z,99675.72
2022-09-02T12:44:51.600Z,99672.03
2022-09-02T12:47:49.295Z,99675.69
2022-09-02T12:50:22.415Z,99668.31
2022-09-02T12:53:11.246Z,99663.56
2022-09-02T12:55:40.224Z,99657.19
2022-09-02T12:58:15.493Z,99657.38
2022-09-02T13:01:14.651Z,99657.91
2022-09-02T13:03:57.796Z,99658.28
2022-09-02T13:06:51.352Z,99649.28
2022-09-02T13:09:58.174Z,99644.59
2022-09-02T13:13:04.773Z,99648.56
2022-09-02T13:15:53.243Z,99638.97
2022-09-02T13:18:57.883Z,99641.47
2022-09-02T13:21:35.205Z,99646.84
2022-09-02T13:24:18.295Z,99643.50
2022-09-02T13:27:00.709Z,99641.50
2022-09-02T13:29:30.340Z,99638.22
2022-09-02T13:32:12.233Z,99636.56
2022-09-02T13:34:50.609Z,99631.59
2022-09-02T13:37:39.425Z,99638.84
2022-09-02T13:40:25.786Z,99632.06
2022-09-02T13:42:58.574Z,99630.84
2022-09-02T13:45:27.566Z,99625.63
2022-09-02T13:48:04.640Z,99627.94
2022-09-02T13:50:32.501Z,99619.09
2022-09-02T13:55:58.434Z,99627.09
2022-09-02T13:58:41.188Z,99618.78
2022-09-02T14:01:34.819Z,99612.97
2022-09-02T14:04:09.386Z,99610.69
2022-09-02T14:06:48.706Z,99609.47
2022-09-02T14:09:36.611Z,99614.91
2022-09-02T14:12:06.752Z,99607.41
2022-09-02T14:14:35.056Z,99609.63
2022-09-02T14:17:30.146Z,99610.84
2022-09-02T14:20:16.171Z,99614.19
2022-09-02T14:22:44.070Z,99605.34
2022-09-02T14:25:18.693Z,99609.50
2022-09-02T14:27:54.042Z,99606.03
2022-09-02T14:30:32.160Z,99609.22
2022-09-02T14:33:18.125Z,99605.31
2022-09-02T14:36:17.956Z,99600.88
2022-09-02T14:38:48.669Z,99596.94
2022-09-02T14:41:26.594Z,99600.22
2022-09-02T14:44:18.180Z,99604.25
2022-09-02T14:46:57.136Z,99608.97
2022-09-02T14:49:32.604Z,99603.22
2022-09-02T14:52:04.010Z,99601.50
2022-09-02T14:54:53.639Z,99591.94
2022-09-02T14:57:32.702Z,99591.78
2022-09-02T15:00:15.087Z,99591.78
2022-09-02T15:02:46.466Z,99588.84
2022-09-02T15:05:14.978Z,99585.81
2022-09-02T15:07:46.002Z,99591.59
2022-09-02T15:10:13.859Z,99585.81
2022-09-02T15:12:49.742Z,99588.41
2022-09-02T15:15:17.235Z,99579.25
2022-09-02T15:17:44.437Z,99575.06
2022-09-02T15:20:11.834Z,99585.09
2022-09-02T15:22:39.360Z,99582.50
2022-09-02T15:25:10.406Z,99588.84
2022-09-02T15:27:38.025Z,99581.75
2022-09-02T15:30:06.490Z,99592.56
2022-09-02T15:32:33.448Z,99589.88
2022-09-02T15:35:00.408Z,99588.84
2022-09-02T15:37:28.000Z,99587.34
2022-09-02T15:39:57.487Z,99582.75
2022-09-02T15:42:25.014Z,99594.31
2022-09-02T15:44:52.207Z,99594.19
2022-09-02T15:47:21.018Z,99594.19
2022-09-02T15:49:48.042Z,99590.22
2022-09-02T15:52:15.842Z,99579.13
2022-09-02T15:54:46.540Z,99579.94
2022-09-02T15:57:14.736Z,99578.31
2022-09-02T15:59:42.468Z,99577.44
2022-09-02T16:02:09.584Z,99588.31
2022-09-02T16:04:39.270Z,99581.19
2022-09-02T16:07:08.894Z,99584.22
2022-09-02T16:09:36.174Z,99582.28
2022-09-02T16:12:03.718Z,99579.19
2022-09-02T16:14:31.068Z,99581.38
2022-09-02T16:16:58.153Z,99582.78
2022-09-02T16:19:29.939Z,99577.75
2022-09-02T16:21:58.235Z,99586.63
2022-09-02T16:24:25.486Z,99586.50
2022-09-02T16:26:52.548Z,99582.03
2022-09-02T16:29:28.270Z,99582.72
2022-09-02T16:32:23.664Z,99586.44
2022-09-02T16:34:42.915Z,99583.66
2022-09-02T16:37:09.838Z,99583.25
2022-09-02T16:39:42.299Z,99574.34
2022-09-02T16:42:09.567Z,99572.44
2022-09-02T16:44:40.417Z,99576.31
2022-09-02T16:47:07.430Z,99565.81
2022-09-02T16:49:35.091Z,99568.22
2022-09-02T16:52:02.355Z,99568.53
2022-09-02T16:54:31.461Z,99563.25
2022-09-02T16:57:00.781Z,99566.66
2022-09-02T16:59:27.869Z,99564.31
2022-09-02T17:01:54.923Z,99557.06
2022-09-02T17:04:22.120Z,99567.13
2022-09-02T17:06:49.392Z,99560.31
2022-09-02T17:09:16.603Z,99564.16
2022-09-02T17:11:45.404Z,99566.06
2022-09-02T17:14:16.510Z,99563.06
2022-09-02T17:16:49.155Z,99569.72
2022-09-02T17:19:22.345Z,99567.13
2022-09-02T17:21:52.342Z,99571.81
2022-09-02T17:24:23.939Z,99562.88
2022-09-02T17:26:56.326Z,99567.41
2022-09-02T17:32:15.423Z,99559.03
2022-09-02T17:34:49.861Z,99569.91
2022-09-02T17:37:17.211Z,99566.72
2022-09-02T17:39:46.859Z,99559.97
2022-09-02T17:42:15.202Z,99566.66
2022-09-02T17:44:44.695Z,99570.47
2022-09-02T17:47:14.647Z,99569.06
2022-09-02T17:49:44.674Z,99576.09
2022-09-02T17:52:23.338Z,99566.44
2022-09-02T17:54:52.639Z,99577.16
2022-09-02T17:57:25.598Z,99574.25
2022-09-02T17:59:59.101Z,99575.41
2022-09-02T18:02:55.642Z,99576.06
2022-09-02T18:05:51.946Z,99569.22
2022-09-02T18:08:32.432Z,99574.34
2022-09-02T18:11:05.290Z,99572.03
2022-09-02T18:13:41.011Z,99574.25
2022-09-02T18:16:25.749Z,99571.41
2022-09-02T18:19:03.133Z,99575.63
2022-09-02T18:21:46.680Z,99587.69
2022-09-02T18:24:33.606Z,99578.97
2022-09-02T18:27:43.698Z,99581.47
2022-09-02T18:30:21.308Z,99587.84
2022-09-02T18:33:10.478Z,99575.97
2022-09-02T18:36:05.363Z,99573.00
2022-09-02T18:38:46.640Z,99578.09
2022-09-02T18:41:42.133Z,99585.41
2022-09-02T18:45:03.611Z,99579.63
2022-09-02T18:48:05.904Z,99587.84
2022-09-02T18:50:59.346Z,99583.94
2022-09-02T18:53:34.421Z,99583.41
2022-09-02T18:56:09.905Z,99590.31
2022-09-02T18:58:47.134Z,99585.47
2022-09-02T19:01:24.493Z,99594.44
2022-09-02T19:03:51.994Z,99585.13
2022-09-02T19:06:22.626Z,99586.81
2022-09-02T19:09:01.497Z,99585.31
2022-09-02T19:11:33.729Z,99582.88
2022-09-02T19:14:26.556Z,99579.16
2022-09-02T19:16:55.761Z,99581.78
2022-09-02T19:19:23.005Z,99589.97
2022-09-02T19:21:55.306Z,99596.88
2022-09-02T19:24:27.042Z,99593.50
2022-09-02T19:27:00.710Z,99598.91
2022-09-02T19:29:29.138Z,99593.13
2022-09-02T19:31:56.376Z,99595.75
2022-09-02T19:34:30.126Z,99590.91
2022-09-02T19:36:57.587Z,99599.28
2022-09-02T19:39:27.098Z,99599.66
2022-09-02T19:41:54.317Z,99595.94
2022-09-02T19:44:24.159Z,99590.16
2022-09-02T19:49:41.652Z,99600.00
2022-09-02T19:52:10.994Z,99601.50
2022-09-02T19:54:38.943Z,99595.34
2022-09-02T19:57:06.208Z,99600.94
2022-09-02T19:59:33.647Z,99602.03
2022-09-02T20:02:03.385Z,99598.50
2022-09-02T20:04:33.342Z,99604.06
2022-09-02T20:07:02.789Z,99602.59
2022-09-02T20:09:30.105Z,99603.91
2022-09-02T20:11:57.541Z,99613.00
2022-09-02T20:14:24.938Z,99611.88
2022-09-02T20:17:00.630Z,99610.00
2022-09-02T20:19:32.172Z,99607.34
2022-09-02T20:21:59.790Z,99601.75
2022-09-02T20:24:33.342Z,99598.91
2022-09-02T20:27:05.413Z,99592.03
2022-09-02T20:29:54.812Z,99600.47
2022-09-02T20:32:44.399Z,99598.19
2022-09-02T20:35:14.410Z,99605.63
2022-09-02T20:37:59.763Z,99595.97
2022-09-02T20:40:45.988Z,99588.91
2022-09-02T20:43:28.422Z,99593.13
2022-09-02T20:46:20.016Z,99595.91
2022-09-02T20:49:03.798Z,99600.00
2022-09-02T20:51:37.917Z,99591.84
2022-09-02T20:54:22.673Z,99583.13
2022-09-02T20:57:02.389Z,99593.38
2022-09-02T20:59:56.488Z,99591.84
2022-09-02T21:02:29.386Z,99587.59
2022-09-02T21:05:05.934Z,99584.63
2022-09-02T21:07:45.647Z,99583.28
2022-09-02T21:10:23.088Z,99585.03
2022-09-02T21:13:27.617Z,99589.63
2022-09-02T21:16:00.924Z,99589.63
2022-09-02T21:18:34.401Z,99594.31
2022-09-02T21:21:20.588Z,99601.06
2022-09-02T21:23:56.554Z,99588.84
2022-09-02T21:26:43.444Z,99578.31
2022-09-02T21:29:27.763Z,99588.34
2022-09-02T21:32:26.150Z,99586.56
2022-09-02T21:35:07.658Z,99583.97
2022-09-02T21:37:37.766Z,99579.81
2022-09-02T21:40:09.418Z,99587.25
2022-09-02T21:43:10.855Z,99577.44
2022-09-02T21:45:52.468Z,99585.56
2022-09-02T21:48:23.120Z,99583.72
2022-09-02T21:51:00.161Z,99583.94
2022-09-02T21:53:38.851Z,99579.47
2022-09-02T21:56:18.177Z,99573.56
2022-09-02T21:58:57.208Z,99572.84
2022-09-02T22:01:44.879Z,99576.13
2022-09-02T22:04:47.843Z,99572.72
2022-09-02T22:07:26.324Z,99572.53
2022-09-02T22:10:11.171Z,99571.25
2022-09-02T22:12:52.004Z,99573.13
2022-09-02T22:15:26.771Z,99573.91
2022-09-02T22:18:08.392Z,99571.31
2022-09-02T22:20:45.136Z,99571.69
2022-09-02T22:23:25.798Z,99564.38
2022-09-02T22:26:04.006Z,99556.34
2022-09-02T22:28:44.260Z,99558.53
2022-09-02T22:31:16.261Z,99554.97
2022-09-02T22:33:55.813Z,99550.66
2022-09-02T22:36:37.061Z,99546.78
2022-09-02T22:39:05.561Z,99548.84
2022-09-02T22:41:35.187Z,99550.47
2022-09-02T22:44:14.209Z,99543.91
2022-09-02T22:47:14.122Z,99547.69
2022-09-02T22:50:05.209Z,99542.06
2022-09-02T22:52:49.627Z,99547.78
2022-09-02T22:55:28.485Z,99543.50
2022-09-02T22:58:21.399Z,99545.69
2022-09-02T23:01:11.407Z,99543.09
2022-09-02T23:04:03.115Z,99547.66
2022-09-02T23:06:33.419Z,99548.13
2022-09-02T23:09:09.019Z,99549.59
2022-09-02T23:11:51.500Z,99546.22
2022-09-02T23:14:47.947Z,99558.03
2022-09-02T23:17:41.698Z,99553.16
2022-09-02T23:20:14.838Z,99557.28
2022-09-02T23:23:08.499Z,99551.66
2022-09-02T23:25:52.433Z,99548.94
2022-09-02T23:28:28.253Z,99543.09
2022-09-02T23:31:47.590Z,99546.72
2022-09-02T23:34:31.402Z,99557.97
2022-09-02T23:37:25.246Z,99548.72
2022-09-02T23:40:26.297Z,99543.31
2022-09-02T23:42:54.385Z,99544.19
2022-09-02T23:45:23.036Z,99529.53
2022-09-02T23:47:53.056Z,99538.88
2022-09-02T23:50:25.457Z,99539.97
2022-09-02T23:53:08.033Z,99524.47
2022-09-02T23:55:35.529Z,99530.41
2022-09-02T23:58:05.517Z,99525.38
